Indianapolis International Airport

Airport
ICAO code: 
KIND
Summary
ICAO Region: 
NAM
Territory: 
Location: 
Indianapolis, Indiana,
Coordinates: 
Aerial View: 
39° 42' 53.909" N, 86° 17' 46.368" W
Airport LOS: 
Parallel Runway Operation
Airport WX: 
Cumulonimbus
Metar
Observation
KIND 042354Z 01006KT 10SM FEW250 04/M05 A3029 RMK AO2 SLP261 T00441050 10094 20044 53007
Station
Indianapolis, Indianapolis International Airport
Date/Time
2021-12-04 23:54:00
Wind direction
10°
Wind speed
06 kts
Lowest cloud amount
few clouds
Temperature
4.4°C
Dew point
-5°C
Humidity
50%
Weather condition
n/a

Description

Indianapolis International Airport is a public airport located 11 km southwest of the central business district of Indianapolis, a city in Marion County, Indiana.

Climatology

Humid continental climate (Köppen climate classification Dfa) - characterized by four seasons: cold, windy, snowy winters, mild springs, hot, humid summers, and crisp and relatively short autumns. Precipitation reaches its lowest in January and February and peaks in summer and latter half of spring.

Runways

Designator Length Width Surface Rops
14/32 2318 46 ASP Yes/Yes
05R/23L 3048 46 CON Yes/Yes
05L/23R 3414 46 CON Yes/Yes
Airport map: 
Aerial View: 

SKYbrary Partners:

Safety knowledge contributed by: